Time;durP1;ratioP1;P1;durP2;ratioP2;P2;SDS_P1;SDS_P2;PMS_P1;PMS_P2;Temp;Humidity;BMP_temperature;BMP_pressure;BME280_temperature;BME280_humidity;BME280_pressure;Samples;Min_cycle;Max_cycle;Signal;HPM_P1;HPM_P2
2022/08/17 00:01:51;;;;;;;7.80;6.70;;;;;;;;;;5042473;28;20111;-59
2022/08/17 00:04:18;;;;;;;11.93;7.25;;;;;;;;;;5049495;28;20032;-58
2022/08/17 00:06:44;;;;;;;14.65;6.93;;;;;;;;;;5046952;28;20573;-60
2022/08/17 00:09:10;;;;;;;10.75;6.65;;;;;;;;;;5044157;28;20045;-59
2022/08/17 00:11:37;;;;;;;10.93;6.93;;;;;;;;;;5046276;28;20029;-59
2022/08/17 00:14:08;;;;;;;9.90;7.07;;;;;;;;;;5047484;28;20024;-59
2022/08/17 00:16:36;;;;;;;9.63;7.13;;;;;;;;;;5047832;28;20107;-58
2022/08/17 00:19:03;;;;;;;10.18;7.18;;;;;;;;;;5041953;28;20037;-59
2022/08/17 00:21:30;;;;;;;11.15;7.43;;;;;;;;;;5048078;28;20121;-59
2022/08/17 00:23:56;;;;;;;10.40;8.07;;;;;;;;;;5046739;28;20093;-59
2022/08/17 00:26:23;;;;;;;11.02;7.45;;;;;;;;;;5044390;28;20064;-59
2022/08/17 00:28:49;;;;;;;10.63;7.15;;;;;;;;;;5048097;28;20376;-60
2022/08/17 00:31:16;;;;;;;13.20;7.57;;;;;;;;;;5044796;28;20057;-59
2022/08/17 00:33:44;;;;;;;9.75;6.63;;;;;;;;;;5049876;28;20144;-60
2022/08/17 00:36:10;;;;;;;11.13;7.00;;;;;;;;;;5047376;28;20037;-60
2022/08/17 00:38:36;;;;;;;14.18;6.75;;;;;;;;;;5049359;28;20035;-59
2022/08/17 00:41:04;;;;;;;10.73;6.97;;;;;;;;;;5048675;28;20028;-59
2022/08/17 00:43:33;;;;;;;10.80;7.07;;;;;;;;;;5040698;28;20059;-60
2022/08/17 00:46:04;;;;;;;11.20;6.85;;;;;;;;;;5046783;28;20021;-59
2022/08/17 00:48:31;;;;;;;15.70;8.13;;;;;;;;;;5048583;28;20492;-59
2022/08/17 00:51:07;;;;;;;9.20;6.82;;;;;;;;;;5045859;28;20075;-59
2022/08/17 00:53:35;;;;;;;11.60;6.53;;;;;;;;;;5061284;28;20028;-59
2022/08/17 00:56:02;;;;;;;14.45;7.38;;;;;;;;;;5048311;28;20024;-60
2022/08/17 00:58:29;;;;;;;10.45;7.03;;;;;;;;;;5050409;28;20029;-60
2022/08/17 01:00:55;;;;;;;10.05;6.45;;;;;;;;;;5045678;28;20113;-59
2022/08/17 01:03:24;;;;;;;10.55;7.13;;;;;;;;;;5047004;28;20028;-59
2022/08/17 01:05:53;;;;;;;9.93;7.03;;;;;;;;;;5045627;28;20031;-59
2022/08/17 01:08:21;;;;;;;9.13;7.18;;;;;;;;;;5051117;28;20079;-58
2022/08/17 01:10:49;;;;;;;11.48;7.30;;;;;;;;;;5051384;28;20054;-59
2022/08/17 01:13:16;;;;;;;10.02;7.57;;;;;;;;;;5053379;28;20037;-59
2022/08/17 01:15:46;;;;;;;8.55;6.88;;;;;;;;;;5051486;28;20078;-60
2022/08/17 01:18:13;;;;;;;11.73;7.30;;;;;;;;;;5051861;28;20090;-60
2022/08/17 01:20:41;;;;;;;9.32;6.80;;;;;;;;;;5050090;28;20028;-59
2022/08/17 01:23:07;;;;;;;9.60;7.32;;;;;;;;;;5052169;28;20029;-59
2022/08/17 01:25:34;;;;;;;11.65;7.20;;;;;;;;;;5052221;28;20032;-59
2022/08/17 01:28:00;;;;;;;11.45;7.20;;;;;;;;;;5052677;28;20468;-59
2022/08/17 01:30:26;;;;;;;10.07;7.53;;;;;;;;;;5052097;28;20033;-59
2022/08/17 01:32:52;;;;;;;10.45;7.47;;;;;;;;;;5047898;28;20033;-59
2022/08/17 01:35:18;;;;;;;10.43;8.23;;;;;;;;;;5051083;28;20087;-60
2022/08/17 01:37:44;;;;;;;11.63;7.80;;;;;;;;;;5048295;28;20035;-59
2022/08/17 01:40:27;;;;;;;11.75;7.97;;;;;;;;;;5051788;28;20095;-59
2022/08/17 01:42:55;;;;;;;10.68;7.72;;;;;;;;;;5050423;28;20035;-59
2022/08/17 01:45:23;;;;;;;10.95;7.18;;;;;;;;;;5050688;28;20029;-59
2022/08/17 01:47:50;;;;;;;10.55;7.65;;;;;;;;;;5052966;28;20025;-59
2022/08/17 01:50:18;;;;;;;14.68;7.55;;;;;;;;;;5049494;28;20029;-59
2022/08/17 01:52:44;;;;;;;13.23;7.95;;;;;;;;;;5049763;28;20036;-59
2022/08/17 01:55:12;;;;;;;13.63;7.93;;;;;;;;;;5051232;28;20029;-59
2022/08/17 01:57:38;;;;;;;11.13;8.07;;;;;;;;;;5050296;28;20384;-60
2022/08/17 02:00:06;;;;;;;9.90;7.25;;;;;;;;;;5048913;28;20033;-58
2022/08/17 02:02:32;;;;;;;12.35;7.53;;;;;;;;;;5053124;28;20052;-59
2022/08/17 02:04:58;;;;;;;10.35;7.47;;;;;;;;;;5051093;28;20061;-59
2022/08/17 02:07:24;;;;;;;10.18;7.40;;;;;;;;;;5045551;28;20046;-58
2022/08/17 02:09:50;;;;;;;10.75;7.72;;;;;;;;;;5048065;28;20029;-60
2022/08/17 02:12:17;;;;;;;10.88;7.32;;;;;;;;;;5049252;28;20472;-59
2022/08/17 02:14:42;;;;;;;10.48;7.63;;;;;;;;;;5050776;28;20091;-59
2022/08/17 02:17:08;;;;;;;9.32;7.35;;;;;;;;;;5051933;28;20036;-59
2022/08/17 02:19:34;;;;;;;10.80;8.02;;;;;;;;;;5043797;28;20389;-59
2022/08/17 02:22:00;;;;;;;11.93;7.35;;;;;;;;;;5045288;28;20037;-59
2022/08/17 02:24:28;;;;;;;8.90;7.13;;;;;;;;;;5051472;28;20033;-59
2022/08/17 02:26:54;;;;;;;8.35;7.38;;;;;;;;;;5051758;28;20457;-59
2022/08/17 02:29:20;;;;;;;10.10;7.40;;;;;;;;;;5049717;28;20025;-60
2022/08/17 02:31:47;;;;;;;10.13;7.35;;;;;;;;;;5051509;28;20033;-59
2022/08/17 02:34:13;;;;;;;11.23;7.20;;;;;;;;;;5049444;28;20027;-60
2022/08/17 02:36:39;;;;;;;11.18;7.15;;;;;;;;;;5051577;28;20021;-59
2022/08/17 02:39:07;;;;;;;9.00;7.22;;;;;;;;;;5048757;28;20107;-59
2022/08/17 02:41:34;;;;;;;10.55;7.32;;;;;;;;;;5050262;28;20599;-59
2022/08/17 02:44:00;;;;;;;12.07;7.95;;;;;;;;;;5049714;28;20025;-59
2022/08/17 02:46:27;;;;;;;11.63;7.63;;;;;;;;;;5051600;28;20028;-59
2022/08/17 02:48:53;;;;;;;9.50;7.15;;;;;;;;;;5050220;28;20435;-59
2022/08/17 02:51:19;;;;;;;10.13;7.40;;;;;;;;;;5051549;28;20059;-58
2022/08/17 02:53:45;;;;;;;10.73;6.75;;;;;;;;;;5051097;28;20029;-59
2022/08/17 02:56:11;;;;;;;9.85;7.57;;;;;;;;;;5051955;28;20035;-59
2022/08/17 02:58:37;;;;;;;11.88;7.50;;;;;;;;;;5047639;28;20021;-59
2022/08/17 03:01:04;;;;;;;10.35;8.13;;;;;;;;;;5046503;28;20055;-58
2022/08/17 03:03:30;;;;;;;11.48;7.35;;;;;;;;;;5050565;28;20617;-59
2022/08/17 03:05:56;;;;;;;10.65;7.03;;;;;;;;;;5051638;28;20075;-59
2022/08/17 03:08:24;;;;;;;11.00;6.93;;;;;;;;;;5051017;28;20037;-59
2022/08/17 03:10:50;;;;;;;11.65;7.38;;;;;;;;;;5049672;28;20032;-59
2022/08/17 03:13:16;;;;;;;10.23;7.45;;;;;;;;;;5050325;28;20048;-59
2022/08/17 03:15:44;;;;;;;10.30;7.53;;;;;;;;;;5049095;28;20650;-59
2022/08/17 03:18:10;;;;;;;8.30;7.20;;;;;;;;;;5051264;28;20035;-60
2022/08/17 03:20:36;;;;;;;10.07;7.30;;;;;;;;;;5049777;28;20020;-58
2022/08/17 03:23:02;;;;;;;9.82;7.07;;;;;;;;;;5051241;28;20048;-59
2022/08/17 03:25:39;;;;;;;11.23;8.25;;;;;;;;;;5051130;28;20048;-59
2022/08/17 03:28:06;;;;;;;10.35;7.78;;;;;;;;;;5048919;28;20029;-58
2022/08/17 03:30:32;;;;;;;11.85;8.20;;;;;;;;;;5046653;28;20491;-59
2022/08/17 03:32:59;;;;;;;11.98;8.45;;;;;;;;;;5049208;28;20033;-59
2022/08/17 03:35:27;;;;;;;9.38;8.15;;;;;;;;;;5049583;28;20029;-59
2022/08/17 03:37:54;;;;;;;12.32;8.35;;;;;;;;;;5047801;28;20116;-59
2022/08/17 03:40:20;;;;;;;14.32;9.27;;;;;;;;;;5049863;28;20029;-61
2022/08/17 03:42:46;;;;;;;10.70;8.07;;;;;;;;;;5050670;28;20057;-60
2022/08/17 03:45:14;;;;;;;13.55;8.68;;;;;;;;;;5049564;28;20075;-59
2022/08/17 03:57:00;;;;;;;11.23;8.73;;;;;;;;;;5042389;28;20040;-60
2022/08/17 03:58:55;;;;;;;12.05;8.07;;;;;;;;;;5028695;28;20496;-59
2022/08/17 04:01:22;;;;;;;11.85;8.55;;;;;;;;;;5042515;28;20037;-59
2022/08/17 04:03:48;;;;;;;12.20;8.50;;;;;;;;;;5049463;28;20087;-59
2022/08/17 04:06:14;;;;;;;9.35;7.72;;;;;;;;;;5046851;28;20488;-59
2022/08/17 04:08:39;;;;;;;9.70;6.72;;;;;;;;;;5048359;28;20049;-59
2022/08/17 04:11:05;;;;;;;8.70;7.00;;;;;;;;;;5050538;28;20440;-59
2022/08/17 04:13:31;;;;;;;11.18;7.38;;;;;;;;;;5050981;28;20380;-59
2022/08/17 04:15:58;;;;;;;9.77;7.75;;;;;;;;;;5050792;28;20029;-59
2022/08/17 04:18:24;;;;;;;10.15;7.85;;;;;;;;;;5048792;28;20037;-59
2022/08/17 04:20:50;;;;;;;11.10;7.32;;;;;;;;;;5044318;28;20392;-60
2022/08/17 04:23:18;;;;;;;9.23;6.85;;;;;;;;;;5049742;28;20029;-59
2022/08/17 04:25:45;;;;;;;10.77;7.55;;;;;;;;;;5050128;28;20033;-60
2022/08/17 04:28:11;;;;;;;9.43;7.45;;;;;;;;;;5047162;28;20025;-59
2022/08/17 04:30:38;;;;;;;10.50;8.13;;;;;;;;;;5047105;28;20029;-59
2022/08/17 04:33:07;;;;;;;7.95;7.15;;;;;;;;;;5049624;28;20103;-59
2022/08/17 04:35:35;;;;;;;10.57;6.93;;;;;;;;;;5049623;28;20126;-59
2022/08/17 04:38:01;;;;;;;11.20;7.35;;;;;;;;;;5048459;28;20056;-59
2022/08/17 04:43:15;;;;;;;11.98;8.52;;;;;;;;;;5048442;28;20396;-58
2022/08/17 04:45:42;;;;;;;11.02;7.53;;;;;;;;;;5050054;28;20396;-59
2022/08/17 04:48:08;;;;;;;11.23;8.15;;;;;;;;;;5049652;28;20028;-59
2022/08/17 04:50:35;;;;;;;11.00;7.80;;;;;;;;;;5048869;28;20021;-59
2022/08/17 04:53:01;;;;;;;10.90;7.82;;;;;;;;;;5048815;28;20083;-58
2022/08/17 04:55:27;;;;;;;10.85;7.72;;;;;;;;;;5048151;28;20028;-59
2022/08/17 04:57:53;;;;;;;9.73;7.57;;;;;;;;;;5048831;28;20128;-59
2022/08/17 05:00:19;;;;;;;10.93;7.57;;;;;;;;;;5042934;28;20053;-58
2022/08/17 05:02:46;;;;;;;13.38;7.80;;;;;;;;;;5036650;28;20072;-59
2022/08/17 05:05:12;;;;;;;10.48;7.57;;;;;;;;;;5044751;28;20023;-59
2022/08/17 05:07:38;;;;;;;9.27;7.28;;;;;;;;;;5045183;28;20044;-59
2022/08/17 05:10:04;;;;;;;10.75;6.95;;;;;;;;;;5046486;28;20037;-59
2022/08/17 05:12:30;;;;;;;13.85;8.05;;;;;;;;;;5049518;28;20037;-60
2022/08/17 05:14:56;;;;;;;10.95;8.10;;;;;;;;;;5049676;28;20083;-60
2022/08/17 05:17:22;;;;;;;11.48;8.07;;;;;;;;;;5047775;28;20033;-58
2022/08/17 05:19:48;;;;;;;11.30;8.10;;;;;;;;;;5049198;28;20021;-59
2022/08/17 05:22:14;;;;;;;15.15;8.35;;;;;;;;;;5044751;28;20079;-59
2022/08/17 05:24:40;;;;;;;12.82;8.05;;;;;;;;;;5048663;28;20404;-58
2022/08/17 05:27:06;;;;;;;11.38;7.97;;;;;;;;;;5049321;28;20032;-59
2022/08/17 05:29:32;;;;;;;11.98;8.35;;;;;;;;;;5050552;28;20039;-59
2022/08/17 05:31:58;;;;;;;13.13;8.50;;;;;;;;;;5046915;28;20641;-59
2022/08/17 05:34:24;;;;;;;10.32;8.15;;;;;;;;;;5048953;28;20427;-59
2022/08/17 05:36:50;;;;;;;11.70;8.70;;;;;;;;;;5048533;28;20096;-60
2022/08/17 05:39:16;;;;;;;10.32;8.60;;;;;;;;;;5050894;28;20033;-59
2022/08/17 05:41:42;;;;;;;12.85;9.07;;;;;;;;;;5049216;28;20047;-59
2022/08/17 05:44:07;;;;;;;13.02;9.00;;;;;;;;;;5048908;28;20037;-59
2022/08/17 05:46:37;;;;;;;13.82;9.70;;;;;;;;;;5049488;28;20029;-59
2022/08/17 05:49:06;;;;;;;14.02;8.70;;;;;;;;;;5049649;28;20036;-60
2022/08/17 05:51:39;;;;;;;10.77;8.13;;;;;;;;;;5048750;28;20028;-59
2022/08/17 05:54:29;;;;;;;12.00;9.73;;;;;;;;;;5046755;28;20524;-59
2022/08/17 05:57:01;;;;;;;11.38;9.30;;;;;;;;;;5041247;28;20036;-59
2022/08/17 05:59:47;;;;;;;14.25;9.75;;;;;;;;;;5048114;28;20021;-59
2022/08/17 06:02:24;;;;;;;13.27;9.00;;;;;;;;;;5044260;28;20029;-59
2022/08/17 06:04:53;;;;;;;13.82;9.38;;;;;;;;;;5047405;28;20035;-59
2022/08/17 06:07:21;;;;;;;12.88;9.10;;;;;;;;;;5044902;28;20104;-59
2022/08/17 06:09:57;;;;;;;11.80;8.88;;;;;;;;;;5053098;28;20492;-59
2022/08/17 06:12:28;;;;;;;10.27;8.15;;;;;;;;;;5050890;28;20470;-60
2022/08/17 06:15:08;;;;;;;10.35;8.02;;;;;;;;;;5050163;28;20025;-59
2022/08/17 06:17:34;;;;;;;14.02;9.52;;;;;;;;;;5048716;28;20068;-59
2022/08/17 06:20:05;;;;;;;10.02;7.60;;;;;;;;;;5048200;28;20075;-59
2022/08/17 06:22:37;;;;;;;10.25;8.38;;;;;;;;;;5041883;28;20519;-59
2022/08/17 06:25:05;;;;;;;10.98;7.43;;;;;;;;;;5048735;28;20033;-60
2022/08/17 06:27:36;;;;;;;9.23;7.95;;;;;;;;;;5044708;28;20104;-60
2022/08/17 06:30:08;;;;;;;9.10;7.30;;;;;;;;;;5047011;28;20044;-60
2022/08/17 06:32:34;;;;;;;13.93;7.40;;;;;;;;;;5049960;28;20052;-60
2022/08/17 06:35:02;;;;;;;9.98;8.05;;;;;;;;;;5052221;28;20028;-60
2022/08/17 06:37:38;;;;;;;7.97;6.93;;;;;;;;;;5050283;28;20123;-59
2022/08/17 06:40:21;;;;;;;9.88;6.55;;;;;;;;;;5052143;28;20384;-59
2022/08/17 06:43:03;;;;;;;9.00;6.07;;;;;;;;;;5051669;28;20029;-60
2022/08/17 06:45:38;;;;;;;8.82;6.60;;;;;;;;;;5048987;28;20095;-59
2022/08/17 06:48:10;;;;;;;8.57;6.32;;;;;;;;;;5049431;28;20043;-59
2022/08/17 06:50:38;;;;;;;8.57;5.95;;;;;;;;;;5051736;28;20024;-59
2022/08/17 06:53:10;;;;;;;7.45;6.35;;;;;;;;;;5052669;28;20350;-59
2022/08/17 06:55:48;;;;;;;11.43;6.32;;;;;;;;;;5044285;28;20456;-59
2022/08/17 06:58:14;;;;;;;10.02;5.82;;;;;;;;;;5050647;28;20036;-59
2022/08/17 07:00:42;;;;;;;9.45;6.25;;;;;;;;;;5050777;28;20047;-59
2022/08/17 07:03:08;;;;;;;8.13;5.63;;;;;;;;;;5049173;28;20117;-59
2022/08/17 07:05:41;;;;;;;11.93;5.82;;;;;;;;;;5044693;28;20025;-60
2022/08/17 07:08:17;;;;;;;9.55;5.97;;;;;;;;;;5050632;28;20051;-59
2022/08/17 07:10:45;;;;;;;9.20;6.10;;;;;;;;;;5048020;28;20025;-58
2022/08/17 07:13:29;;;;;;;8.48;5.85;;;;;;;;;;5050201;28;20476;-60
2022/08/17 07:15:55;;;;;;;;;;;;;;;;;;5040778;28;20498;-59
2022/08/17 07:18:22;;;;;;;10.55;4.82;;;;;;;;;;5044611;28;19991;-59
2022/08/17 07:20:51;;;;;;;11.82;5.07;;;;;;;;;;5049887;28;20024;-59
2022/08/17 07:23:29;;;;;;;6.85;4.20;;;;;;;;;;5041721;28;20484;-59
2022/08/17 07:26:03;;;;;;;11.13;4.28;;;;;;;;;;5049228;28;20104;-60
2022/08/17 07:28:31;;;;;;;8.25;4.30;;;;;;;;;;5049763;28;20025;-60
2022/08/17 07:30:57;;;;;;;8.52;4.30;;;;;;;;;;5049428;28;20579;-60
2022/08/17 07:33:25;;;;;;;17.80;3.95;;;;;;;;;;5047318;28;20043;-58
2022/08/17 07:35:51;;;;;;;10.13;4.28;;;;;;;;;;5049167;28;20368;-60
2022/08/17 07:38:22;;;;;;;7.10;3.50;;;;;;;;;;5043856;28;20021;-59
2022/08/17 07:41:01;;;;;;;7.70;3.53;;;;;;;;;;5045323;28;20061;-59
2022/08/17 07:43:39;;;;;;;4.50;3.70;;;;;;;;;;5043594;28;20057;-60
2022/08/17 07:48:54;;;;;;;6.18;3.90;;;;;;;;;;5045500;28;20094;-61
2022/08/17 07:51:23;;;;;;;8.57;3.45;;;;;;;;;;5047131;28;20025;-60
2022/08/17 07:53:49;;;;;;;6.47;3.38;;;;;;;;;;5040012;28;20025;-60
2022/08/17 07:56:36;;;;;;;4.20;3.40;;;;;;;;;;5044988;28;20087;-59
2022/08/17 07:59:07;;;;;;;4.30;3.40;;;;;;;;;;5048274;28;20566;-59
2022/08/17 08:01:36;;;;;;;5.05;3.13;;;;;;;;;;5043438;28;20036;-59
2022/08/17 08:04:02;;;;;;;5.28;3.25;;;;;;;;;;5041890;28;20032;-59
2022/08/17 08:06:28;;;;;;;6.65;3.15;;;;;;;;;;5046902;28;20024;-60
2022/08/17 08:08:55;;;;;;;8.95;3.50;;;;;;;;;;5048528;28;20499;-59
2022/08/17 08:11:31;;;;;;;6.05;3.15;;;;;;;;;;5049909;28;20430;-59
2022/08/17 08:14:16;;;;;;;4.70;3.00;;;;;;;;;;5050305;28;20037;-60
2022/08/17 08:16:55;;;;;;;8.07;3.60;;;;;;;;;;5043878;28;20664;-60
2022/08/17 08:19:23;;;;;;;7.00;3.63;;;;;;;;;;5047764;28;20036;-59
2022/08/17 08:21:55;;;;;;;6.25;3.15;;;;;;;;;;5047416;28;20108;-59
2022/08/17 08:24:36;;;;;;;5.50;3.28;;;;;;;;;;5049647;28;20037;-60
2022/08/17 08:27:08;;;;;;;5.15;3.20;;;;;;;;;;5048685;28;20025;-60
2022/08/17 08:29:47;;;;;;;3.70;3.13;;;;;;;;;;5051495;28;20021;-60
2022/08/17 08:32:36;;;;;;;4.95;3.05;;;;;;;;;;5050696;28;20282;-60
2022/08/17 08:35:09;;;;;;;7.72;3.40;;;;;;;;;;5049820;28;20064;-60
2022/08/17 08:37:35;;;;;;;;;;;;;;;;;;5039561;28;20029;-61
2022/08/17 08:40:16;;;;;;;3.65;3.08;;;;;;;;;;5044344;28;19916;-60
2022/08/17 08:42:52;;;;;;;9.00;3.10;;;;;;;;;;5049054;28;20029;-59
2022/08/17 08:45:25;;;;;;;4.93;3.33;;;;;;;;;;5045505;28;20037;-60
2022/08/17 08:48:10;;;;;;;8.55;4.20;;;;;;;;;;5045278;28;20070;-61
2022/08/17 08:50:55;;;;;;;6.88;3.88;;;;;;;;;;5045237;28;20031;-60
2022/08/17 08:53:22;;;;;;;9.10;4.15;;;;;;;;;;5049710;28;20545;-61
2022/08/17 08:55:58;;;;;;;4.35;2.92;;;;;;;;;;5048653;28;20044;-60
2022/08/17 08:58:42;;;;;;;8.05;3.10;;;;;;;;;;5049280;28;20528;-59
2022/08/17 09:01:15;;;;;;;4.47;3.15;;;;;;;;;;5046482;28;20107;-60
2022/08/17 09:03:53;;;;;;;3.50;3.05;;;;;;;;;;5048591;28;20043;-59
2022/08/17 09:06:31;;;;;;;6.15;3.42;;;;;;;;;;5048836;28;20036;-60
2022/08/17 09:09:12;;;;;;;9.43;3.50;;;;;;;;;;5050237;28;20057;-59
2022/08/17 09:11:46;;;;;;;3.55;3.00;;;;;;;;;;5050009;28;20025;-60
2022/08/17 09:14:22;;;;;;;5.15;3.15;;;;;;;;;;5050282;28;20025;-60
2022/08/17 09:17:05;;;;;;;4.28;2.83;;;;;;;;;;5047907;28;20119;-59
2022/08/17 09:19:36;;;;;;;4.10;2.80;;;;;;;;;;5043233;28;20044;-59
2022/08/17 09:22:13;;;;;;;6.30;3.22;;;;;;;;;;5048099;28;20029;-59
2022/08/17 09:24:42;;;;;;;7.50;3.20;;;;;;;;;;5048140;28;20388;-60
2022/08/17 09:27:08;;;;;;;5.13;2.58;;;;;;;;;;5047115;28;20079;-61
2022/08/17 09:29:38;;;;;;;5.47;2.78;;;;;;;;;;5048586;28;20029;-60
2022/08/17 09:32:15;;;;;;;4.15;2.70;;;;;;;;;;5051374;28;20025;-60
2022/08/17 09:34:47;;;;;;;4.50;2.78;;;;;;;;;;5053951;28;20067;-60
2022/08/17 09:37:33;;;;;;;4.68;2.83;;;;;;;;;;5054396;28;20032;-61
2022/08/17 09:40:16;;;;;;;5.28;2.70;;;;;;;;;;5053490;28;20548;-60
2022/08/17 09:42:49;;;;;;;6.32;2.80;;;;;;;;;;5045959;28;20496;-60
2022/08/17 09:45:15;;;;;;;3.85;3.10;;;;;;;;;;5050382;28;20021;-60
2022/08/17 09:48:05;;;;;;;5.28;2.97;;;;;;;;;;5051291;28;20032;-60
2022/08/17 09:50:44;;;;;;;4.63;3.25;;;;;;;;;;5053994;28;20033;-60
2022/08/17 09:53:10;;;;;;;4.93;2.80;;;;;;;;;;5053509;28;20031;-60
2022/08/17 09:55:45;;;;;;;5.05;2.55;;;;;;;;;;5046496;28;20029;-60
2022/08/17 09:58:21;;;;;;;5.15;3.10;;;;;;;;;;5050830;28;20060;-60
2022/08/17 10:00:52;;;;;;;5.03;2.90;;;;;;;;;;5051040;28;20100;-60
2022/08/17 10:03:33;;;;;;;6.95;2.75;;;;;;;;;;5050130;28;20070;-60
2022/08/17 10:06:12;;;;;;;5.35;2.63;;;;;;;;;;5054266;28;20032;-60
2022/08/17 10:08:51;;;;;;;4.00;2.40;;;;;;;;;;5049888;28;20477;-60
2022/08/17 10:11:18;;;;;;;4.32;2.65;;;;;;;;;;5048417;28;20025;-60
2022/08/17 10:13:50;;;;;;;3.20;2.30;;;;;;;;;;5054046;28;20023;-60
2022/08/17 10:16:19;;;;;;;5.82;2.97;;;;;;;;;;5054122;28;20028;-60
2022/08/17 10:18:53;;;;;;;4.22;2.67;;;;;;;;;;5053799;28;20021;-60
2022/08/17 10:27:01;;;;;;;3.05;2.40;;;;;;;;;;5053883;28;20048;-60
2022/08/17 10:29:31;;;;;;;3.15;2.10;;;;;;;;;;5053792;28;20093;-61
2022/08/17 10:32:03;;;;;;;6.53;2.40;;;;;;;;;;5053357;28;20025;-60
2022/08/17 10:34:35;;;;;;;4.10;2.60;;;;;;;;;;5052313;28;20388;-60
2022/08/17 10:37:40;;;;;;;3.15;2.17;;;;;;;;;;5053635;28;20112;-60
2022/08/17 10:40:17;;;;;;;5.00;2.20;;;;;;;;;;4972145;28;20480;-60
2022/08/17 10:43:01;;;;;;;7.50;2.75;;;;;;;;;;4972560;28;20030;-60
2022/08/17 10:45:30;;;;;;;5.47;2.60;;;;;;;;;;5026742;28;20037;-61
2022/08/17 10:48:02;;;;;;;6.88;2.47;;;;;;;;;;5053468;28;20096;-61
2022/08/17 10:50:48;;;;;;;3.70;2.45;;;;;;;;;;5053144;28;20025;-60
2022/08/17 10:53:32;;;;;;;6.38;2.22;;;;;;;;;;5042033;28;20117;-58
2022/08/17 10:56:14;;;;;;;3.17;2.00;;;;;;;;;;5049402;28;20113;-58
2022/08/17 10:58:54;;;;;;;3.23;1.70;;;;;;;;;;5046488;28;20029;-57
2022/08/17 11:01:23;;;;;;;5.38;1.80;;;;;;;;;;5050087;28;20365;-58
2022/08/17 11:03:52;;;;;;;3.05;1.80;;;;;;;;;;5051949;28;20020;-58
2022/08/17 11:06:22;;;;;;;6.90;1.98;;;;;;;;;;5044178;28;20045;-58
2022/08/17 11:09:06;;;;;;;3.25;1.60;;;;;;;;;;5048762;28;20107;-58
2022/08/17 11:11:41;;;;;;;3.13;1.77;;;;;;;;;;5042403;28;20037;-59
2022/08/17 11:14:20;;;;;;;2.78;1.42;;;;;;;;;;5036502;28;20126;-58
2022/08/17 11:17:03;;;;;;;7.75;2.00;;;;;;;;;;5033079;28;20652;-59
2022/08/17 11:19:37;;;;;;;4.53;1.80;;;;;;;;;;5033933;28;20021;-58
2022/08/17 11:22:12;;;;;;;3.17;1.80;;;;;;;;;;5034590;28;20017;-58
2022/08/17 11:24:40;;;;;;;4.55;1.55;;;;;;;;;;5046018;28;20029;-58
2022/08/17 11:27:18;;;;;;;3.05;1.67;;;;;;;;;;5048503;28;20100;-58
2022/08/17 11:29:55;;;;;;;4.03;1.58;;;;;;;;;;5048642;28;20401;-59
2022/08/17 11:32:30;;;;;;;3.60;1.88;;;;;;;;;;5049566;28;20085;-58
2022/08/17 11:35:28;;;;;;;5.97;1.67;;;;;;;;;;5051584;28;20067;-57
2022/08/17 11:38:12;;;;;;;3.42;1.95;;;;;;;;;;4971239;28;20155;-58
2022/08/17 11:40:49;;;;;;;1.83;1.42;;;;;;;;;;5048506;28;20090;-58
2022/08/17 11:43:40;;;;;;;4.13;1.90;;;;;;;;;;5049354;28;20121;-58
2022/08/17 11:51:32;;;;;;;3.47;1.85;;;;;;;;;;5050253;28;20036;-58
2022/08/17 11:52:00;;;;;;;4.25;2.00;;;;;;;;;;5050239;28;20095;-58
2022/08/17 11:54:29;;;;;;;2.33;1.83;;;;;;;;;;5050428;28;20032;-58
2022/08/17 11:56:57;;;;;;;5.00;1.90;;;;;;;;;;5044628;28;20112;-58
2022/08/17 11:59:31;;;;;;;2.40;1.67;;;;;;;;;;5047459;28;20036;-60
2022/08/17 12:01:58;;;;;;;2.97;1.90;;;;;;;;;;5043327;28;20075;-58
2022/08/17 12:04:29;;;;;;;6.03;2.10;;;;;;;;;;5047915;28;20029;-58
2022/08/17 12:06:56;;;;;;;3.75;2.00;;;;;;;;;;5047377;28;20416;-58
2022/08/17 12:09:25;;;;;;;2.95;1.88;;;;;;;;;;5039856;28;20037;-60
2022/08/17 12:11:54;;;;;;;5.55;2.00;;;;;;;;;;5048542;28;20037;-60
2022/08/17 12:14:25;;;;;;;3.28;2.15;;;;;;;;;;5045853;28;20041;-60
2022/08/17 12:17:08;;;;;;;4.85;2.03;;;;;;;;;;5042348;28;20438;-60
2022/08/17 12:19:36;;;;;;;3.38;1.80;;;;;;;;;;5048775;28;20521;-60
2022/08/17 12:22:08;;;;;;;3.83;2.13;;;;;;;;;;5048642;28;20029;-60
2022/08/17 12:24:43;;;;;;;5.27;2.20;;;;;;;;;;5044555;28;20027;-60
2022/08/17 12:27:10;;;;;;;2.13;1.58;;;;;;;;;;5047275;28;20158;-60
2022/08/17 12:29:36;;;;;;;4.25;2.00;;;;;;;;;;5050202;28;20357;-60
2022/08/17 12:32:03;;;;;;;5.82;2.20;;;;;;;;;;5049469;28;20439;-60
2022/08/17 12:34:34;;;;;;;2.72;2.15;;;;;;;;;;5049948;28;20043;-60
2022/08/17 12:37:02;;;;;;;3.83;2.10;;;;;;;;;;5045259;28;20527;-60
2022/08/17 12:39:29;;;;;;;3.03;2.10;;;;;;;;;;5049585;28;20046;-60
2022/08/17 12:41:57;;;;;;;2.20;1.95;;;;;;;;;;5047479;28;20051;-60
2022/08/17 12:44:28;;;;;;;4.97;2.22;;;;;;;;;;5051269;28;20086;-60
2022/08/17 12:46:58;;;;;;;3.72;1.75;;;;;;;;;;5050066;28;20029;-60
2022/08/17 12:49:25;;;;;;;3.65;1.98;;;;;;;;;;5048092;28;20040;-61
2022/08/17 12:51:55;;;;;;;3.28;1.98;;;;;;;;;;5048317;28;21894;-60
2022/08/17 12:54:30;;;;;;;3.90;2.20;;;;;;;;;;5048230;28;20090;-61
2022/08/17 12:56:59;;;;;;;4.88;1.80;;;;;;;;;;5047549;28;20086;-61
2022/08/17 12:59:25;;;;;;;2.60;1.45;;;;;;;;;;5047594;28;20096;-58
2022/08/17 13:01:52;;;;;;;2.53;1.52;;;;;;;;;;5050013;28;20044;-58
2022/08/17 13:04:19;;;;;;;2.80;1.77;;;;;;;;;;5051948;28;20021;-58
2022/08/17 13:06:50;;;;;;;3.15;1.73;;;;;;;;;;5054561;28;20049;-58
2022/08/17 13:09:21;;;;;;;3.42;2.05;;;;;;;;;;5052371;28;20092;-58
2022/08/17 13:11:52;;;;;;;4.75;1.70;;;;;;;;;;5051650;28;20025;-58
2022/08/17 13:14:18;;;;;;;4.40;1.92;;;;;;;;;;5042623;28;20074;-57
2022/08/17 13:17:12;;;;;;;2.47;1.65;;;;;;;;;;5053103;28;20033;-57
2022/08/17 13:19:46;;;;;;;3.85;1.73;;;;;;;;;;5040799;28;20041;-57
2022/08/17 13:22:12;;;;;;;3.42;1.70;;;;;;;;;;5049642;28;20084;-58
2022/08/17 13:24:48;;;;;;;2.08;1.52;;;;;;;;;;5048751;28;20059;-58
2022/08/17 13:27:14;;;;;;;6.15;2.60;;;;;;;;;;5046054;28;20100;-60
2022/08/17 13:29:47;;;;;;;3.40;1.77;;;;;;;;;;5046465;28;20053;-57
2022/08/17 13:32:18;;;;;;;4.50;2.15;;;;;;;;;;5045445;28;20025;-60
2022/08/17 13:34:46;;;;;;;1.85;1.58;;;;;;;;;;5041490;28;20111;-60
2022/08/17 13:37:27;;;;;;;5.75;2.20;;;;;;;;;;5049830;28;20061;-60
2022/08/17 13:40:09;;;;;;;3.22;1.98;;;;;;;;;;5047939;28;20522;-59
2022/08/17 13:42:38;;;;;;;3.03;2.00;;;;;;;;;;5051431;28;20024;-58
2022/08/17 13:45:24;;;;;;;9.15;2.10;;;;;;;;;;5050890;28;20052;-58
2022/08/17 13:48:03;;;;;;;5.97;2.03;;;;;;;;;;5044719;28;20075;-57
2022/08/17 13:50:29;;;;;;;4.30;2.15;;;;;;;;;;5052640;28;20107;-57
2022/08/17 13:52:57;;;;;;;3.53;1.77;;;;;;;;;;5051356;28;20447;-60
2022/08/17 13:55:24;;;;;;;3.10;1.73;;;;;;;;;;5046895;28;20120;-60
2022/08/17 13:57:51;;;;;;;4.60;1.85;;;;;;;;;;5049674;28;20511;-58
2022/08/17 14:00:28;;;;;;;4.10;1.80;;;;;;;;;;5050410;28;20025;-58
2022/08/17 14:02:54;;;;;;;5.72;2.22;;;;;;;;;;5045125;28;20660;-58
2022/08/17 14:05:20;;;;;;;2.65;1.67;;;;;;;;;;5044783;28;20672;-58
2022/08/17 14:07:46;;;;;;;1.60;1.40;;;;;;;;;;5011404;28;1076143;-58
2022/08/17 14:10:14;;;;;;;3.03;2.03;;;;;;;;;;5047891;28;20036;-57
2022/08/17 14:12:42;;;;;;;7.07;1.92;;;;;;;;;;5044534;28;20477;-58
2022/08/17 14:15:08;;;;;;;2.53;1.60;;;;;;;;;;5048958;28;20056;-58
2022/08/17 14:17:34;;;;;;;3.03;1.80;;;;;;;;;;5053424;28;20047;-58
2022/08/17 14:20:00;;;;;;;3.53;1.58;;;;;;;;;;5049266;28;20029;-58
2022/08/17 14:22:31;;;;;;;3.72;1.80;;;;;;;;;;5051118;28;20048;-57
2022/08/17 14:24:58;;;;;;;3.65;1.80;;;;;;;;;;5046293;28;20031;-58
2022/08/17 14:27:26;;;;;;;13.52;2.08;;;;;;;;;;5045216;28;20088;-57
2022/08/17 14:29:53;;;;;;;3.65;1.70;;;;;;;;;;5041459;28;20033;-58
2022/08/17 14:32:20;;;;;;;5.13;1.45;;;;;;;;;;5046578;28;20116;-58
2022/08/17 14:34:48;;;;;;;3.47;1.63;;;;;;;;;;5040912;28;20381;-58
2022/08/17 14:37:14;;;;;;;2.42;1.50;;;;;;;;;;5046189;28;20075;-58
2022/08/17 14:39:40;;;;;;;3.55;1.55;;;;;;;;;;5042286;28;20033;-60
2022/08/17 14:42:07;;;;;;;9.38;1.80;;;;;;;;;;5044359;28;20056;-60
2022/08/17 14:44:33;;;;;;;2.90;2.10;;;;;;;;;;5047100;28;20108;-58
2022/08/17 14:46:59;;;;;;;6.38;2.03;;;;;;;;;;5047359;28;20439;-58
2022/08/17 14:49:25;;;;;;;4.00;1.50;;;;;;;;;;5043061;28;20037;-58
2022/08/17 14:51:51;;;;;;;3.40;1.88;;;;;;;;;;5045896;28;20413;-58
2022/08/17 14:54:18;;;;;;;2.38;1.45;;;;;;;;;;5048966;28;20379;-58
2022/08/17 14:56:45;;;;;;;2.03;1.42;;;;;;;;;;5049140;28;20541;-58
2022/08/17 14:59:13;;;;;;;3.50;1.60;;;;;;;;;;5047138;28;20041;-61
2022/08/17 15:01:39;;;;;;;5.28;1.65;;;;;;;;;;5050661;28;20541;-60
2022/08/17 15:04:05;;;;;;;3.90;1.50;;;;;;;;;;5051888;28;20033;-58
2022/08/17 15:06:31;;;;;;;6.07;1.80;;;;;;;;;;5049272;28;20455;-58
2022/08/17 15:08:57;;;;;;;2.88;1.40;;;;;;;;;;5040207;28;20107;-58
2022/08/17 15:11:23;;;;;;;2.53;1.80;;;;;;;;;;5051172;28;20029;-57
2022/08/17 15:13:49;;;;;;;2.90;1.48;;;;;;;;;;5050602;28;20635;-58
2022/08/17 15:16:15;;;;;;;2.83;1.90;;;;;;;;;;5053030;28;20021;-58
2022/08/17 15:18:41;;;;;;;6.78;1.75;;;;;;;;;;5052824;28;20025;-57
2022/08/17 15:21:09;;;;;;;2.13;1.65;;;;;;;;;;5052493;28;20025;-57